createdAt,value
2023-03-31T00:02:07.794Z,9.20
2023-03-31T00:04:46.852Z,9.18
2023-03-31T00:07:22.586Z,9.10
2023-03-31T00:10:10.418Z,9.13
2023-03-31T00:12:49.672Z,9.09
2023-03-31T00:15:23.798Z,9.09
2023-03-31T00:18:00.924Z,9.06
2023-03-31T00:20:34.037Z,9.04
2023-03-31T00:23:11.371Z,9.04
2023-03-31T00:25:46.487Z,9.02
2023-03-31T00:28:19.285Z,9.03
2023-03-31T00:30:52.065Z,9.04
2023-03-31T00:33:24.776Z,9.04
2023-03-31T00:36:02.520Z,8.98
2023-03-31T00:38:39.596Z,9.01
2023-03-31T00:41:22.942Z,9.05
2023-03-31T00:44:15.183Z,9.05
2023-03-31T00:46:52.885Z,9.00
2023-03-31T00:49:31.970Z,9.05
2023-03-31T00:52:09.234Z,9.05
2023-03-31T00:54:42.840Z,9.07
2023-03-31T00:57:17.554Z,9.06
2023-03-31T00:59:53.510Z,9.05
2023-03-31T01:02:27.136Z,9.01
2023-03-31T01:05:02.768Z,9.02
2023-03-31T01:07:43.032Z,8.98
2023-03-31T01:10:17.516Z,9.00
2023-03-31T01:12:54.193Z,8.97
2023-03-31T01:15:27.427Z,8.99
2023-03-31T01:18:01.090Z,8.97
2023-03-31T01:20:42.954Z,8.99
2023-03-31T01:24:11.974Z,8.99
2023-03-31T01:27:07.414Z,8.93
2023-03-31T01:30:06.968Z,8.92
2023-03-31T01:33:10.817Z,8.91
2023-03-31T01:36:21.674Z,8.87
2023-03-31T01:39:27.065Z,8.88
2023-03-31T01:42:08.193Z,8.90
2023-03-31T01:44:47.577Z,8.90
2023-03-31T01:47:27.497Z,8.87
2023-03-31T01:50:04.599Z,8.86
2023-03-31T01:52:44.855Z,8.88
2023-03-31T01:55:25.914Z,8.89
2023-03-31T01:58:07.718Z,8.93
2023-03-31T02:00:45.717Z,8.96
2023-03-31T02:03:24.391Z,8.97
2023-03-31T02:06:01.516Z,8.98
2023-03-31T02:08:37.515Z,9.01
2023-03-31T02:11:10.245Z,8.99
2023-03-31T02:13:45.478Z,9.02
2023-03-31T02:16:25.155Z,8.99
2023-03-31T02:19:04.085Z,8.98
2023-03-31T02:21:39.837Z,9.00
2023-03-31T02:24:16.456Z,8.98
2023-03-31T02:26:55.575Z,8.95
2023-03-31T02:29:28.257Z,8.93
2023-03-31T02:32:08.184Z,8.94
2023-03-31T02:34:41.554Z,8.93
2023-03-31T02:37:15.029Z,8.96
2023-03-31T02:39:51.243Z,8.93
2023-03-31T02:42:24.445Z,8.92
2023-03-31T02:45:03.489Z,8.86
2023-03-31T02:47:37.722Z,8.86
2023-03-31T02:50:12.685Z,8.85
2023-03-31T02:53:05.314Z,8.85
2023-03-31T02:55:58.516Z,8.83
2023-03-31T02:58:54.444Z,8.81
2023-03-31T03:01:45.677Z,8.74
2023-03-31T03:04:35.927Z,8.73
2023-03-31T03:07:15.312Z,8.70
2023-03-31T03:10:00.170Z,8.67
2023-03-31T03:12:42.333Z,8.68
2023-03-31T03:15:20.443Z,8.66
2023-03-31T03:17:55.382Z,8.66
2023-03-31T03:20:28.277Z,8.62
2023-03-31T03:23:01.315Z,8.63
2023-03-31T03:25:35.969Z,8.63
2023-03-31T03:28:08.831Z,8.60
2023-03-31T03:30:41.638Z,8.57
2023-03-31T03:33:17.512Z,8.59
2023-03-31T03:35:50.549Z,8.61
2023-03-31T03:38:23.340Z,8.61
2023-03-31T03:40:58.276Z,8.58
2023-03-31T03:43:31.075Z,8.59
2023-03-31T03:46:05.670Z,8.61
2023-03-31T03:48:38.710Z,8.62
2023-03-31T03:51:11.899Z,8.65
2023-03-31T03:53:44.590Z,8.66
2023-03-31T03:56:17.280Z,8.70
2023-03-31T03:58:49.911Z,8.68
2023-03-31T04:01:22.957Z,8.67
2023-03-31T04:03:55.574Z,8.66
2023-03-31T04:06:30.074Z,8.66
2023-03-31T04:09:02.676Z,8.65
2023-03-31T04:11:35.854Z,8.63
2023-03-31T04:14:10.169Z,8.59
2023-03-31T04:16:43.041Z,8.62
2023-03-31T04:19:17.960Z,8.63
2023-03-31T04:21:51.132Z,8.59
2023-03-31T04:24:31.048Z,8.60
2023-03-31T04:27:07.650Z,8.61
2023-03-31T04:29:40.548Z,8.61
2023-03-31T04:32:15.488Z,8.58
2023-03-31T04:34:48.021Z,8.56
2023-03-31T04:37:20.786Z,8.55
2023-03-31T04:39:55.096Z,8.55
2023-03-31T04:42:28.037Z,8.56
2023-03-31T04:45:00.500Z,8.57
2023-03-31T04:47:33.401Z,8.56
2023-03-31T04:50:07.528Z,8.58
2023-03-31T04:52:41.268Z,8.61
2023-03-31T04:55:14.583Z,8.65
2023-03-31T04:57:47.520Z,8.69
2023-03-31T05:00:22.361Z,8.70
2023-03-31T05:02:55.318Z,8.79
2023-03-31T05:05:28.245Z,8.84
2023-03-31T05:08:00.908Z,8.83
2023-03-31T05:10:34.016Z,8.82
2023-03-31T05:13:07.645Z,8.83
2023-03-31T05:15:47.677Z,8.82
2023-03-31T05:18:20.636Z,8.79
2023-03-31T05:20:53.344Z,8.77
2023-03-31T05:23:26.362Z,8.78
2023-03-31T05:25:59.028Z,8.78
2023-03-31T05:28:32.510Z,8.78
2023-03-31T05:31:04.339Z,8.80
2023-03-31T05:33:40.749Z,8.74
2023-03-31T05:36:15.719Z,8.79
2023-03-31T05:38:48.628Z,8.81
2023-03-31T05:41:21.476Z,8.88
2023-03-31T05:43:54.797Z,8.86
2023-03-31T05:46:27.812Z,8.96
2023-03-31T05:49:00.488Z,9.05
2023-03-31T05:51:33.405Z,9.18
2023-03-31T05:54:06.756Z,9.19
2023-03-31T05:56:39.633Z,9.30
2023-03-31T05:59:12.442Z,9.37
2023-03-31T06:01:45.790Z,9.45
2023-03-31T06:04:18.621Z,9.49
2023-03-31T06:06:52.047Z,9.52
2023-03-31T06:09:25.162Z,9.55
2023-03-31T06:11:57.884Z,9.55
2023-03-31T06:14:30.891Z,9.54
2023-03-31T06:17:03.508Z,9.55
2023-03-31T06:19:37.961Z,9.63
2023-03-31T06:22:10.820Z,9.75
2023-03-31T06:24:43.607Z,9.93
2023-03-31T06:27:16.830Z,10.00
2023-03-31T06:29:50.577Z,10.11
2023-03-31T06:32:23.393Z,10.16
2023-03-31T06:34:56.366Z,10.27
2023-03-31T06:37:29.166Z,10.35
2023-03-31T06:40:02.166Z,10.61
2023-03-31T06:42:35.384Z,10.76
2023-03-31T06:45:08.925Z,10.84
2023-03-31T06:47:41.865Z,10.89
2023-03-31T06:50:15.306Z,10.87
2023-03-31T06:52:48.638Z,10.87
2023-03-31T06:55:21.937Z,10.78
2023-03-31T06:57:54.518Z,10.82
2023-03-31T07:00:27.710Z,10.85
2023-03-31T07:03:02.038Z,10.88
2023-03-31T07:05:34.656Z,10.95
2023-03-31T07:08:07.287Z,10.97
2023-03-31T07:10:39.793Z,11.05
2023-03-31T07:13:13.031Z,10.97
2023-03-31T07:15:48.633Z,11.02
2023-03-31T07:18:26.577Z,11.10
2023-03-31T07:20:59.391Z,11.09
2023-03-31T07:23:32.133Z,11.15
2023-03-31T07:26:05.354Z,11.15
2023-03-31T07:28:38.090Z,11.26
2023-03-31T07:31:16.583Z,11.29
2023-03-31T07:33:49.896Z,11.19
2023-03-31T07:36:22.849Z,11.30
2023-03-31T07:38:55.948Z,11.43
2023-03-31T07:41:29.191Z,11.50
2023-03-31T07:44:02.110Z,11.54
2023-03-31T07:46:34.880Z,11.60
2023-03-31T07:49:10.493Z,11.87
2023-03-31T07:51:43.171Z,12.11
2023-03-31T07:54:16.019Z,12.39
2023-03-31T07:56:48.900Z,12.51
2023-03-31T07:59:38.832Z,12.63
2023-03-31T08:02:13.047Z,12.66
2023-03-31T08:04:46.520Z,12.74
2023-03-31T08:07:19.508Z,12.86
2023-03-31T08:09:52.300Z,13.07
2023-03-31T08:12:25.236Z,13.17
2023-03-31T08:14:58.093Z,13.22
2023-03-31T08:17:31.278Z,13.40
2023-03-31T08:20:07.139Z,13.40
2023-03-31T08:22:41.355Z,13.49
2023-03-31T08:25:16.707Z,13.59
2023-03-31T08:27:51.611Z,13.72
2023-03-31T08:30:24.462Z,13.82
2023-03-31T08:32:57.134Z,13.88
2023-03-31T08:35:29.842Z,13.90
2023-03-31T08:38:02.741Z,14.13
2023-03-31T08:40:36.512Z,14.23
2023-03-31T08:43:14.312Z,14.24
2023-03-31T08:45:51.301Z,14.31
2023-03-31T08:48:29.324Z,14.37
2023-03-31T08:51:07.933Z,14.42
2023-03-31T08:53:45.625Z,14.41
2023-03-31T08:56:23.015Z,14.41
2023-03-31T08:59:02.330Z,14.32
2023-03-31T09:01:55.495Z,14.36
2023-03-31T09:04:54.583Z,14.46
2023-03-31T09:07:39.696Z,14.41
2023-03-31T09:10:29.337Z,14.46
2023-03-31T09:13:12.511Z,14.38
2023-03-31T09:16:05.543Z,14.49
2023-03-31T09:18:41.135Z,14.79
2023-03-31T09:21:20.270Z,14.99
2023-03-31T09:24:00.326Z,15.05
2023-03-31T09:26:40.999Z,14.99
2023-03-31T09:29:19.598Z,15.08
2023-03-31T09:31:52.537Z,15.42
2023-03-31T09:34:30.154Z,15.76
2023-03-31T09:37:03.010Z,15.80
2023-03-31T09:39:36.291Z,15.76
2023-03-31T09:42:07.785Z,15.83
2023-03-31T09:44:42.715Z,15.92
2023-03-31T09:47:24.061Z,15.90
2023-03-31T09:49:57.139Z,15.70
2023-03-31T09:52:33.743Z,15.45
2023-03-31T09:55:12.847Z,15.46
2023-03-31T09:57:46.767Z,15.73
2023-03-31T10:00:24.736Z,16.00
2023-03-31T10:02:59.231Z,16.10
2023-03-31T10:05:34.547Z,16.16
2023-03-31T10:08:29.063Z,16.47
2023-03-31T10:11:11.888Z,16.42
2023-03-31T10:13:51.682Z,16.09
2023-03-31T10:16:30.388Z,16.16
2023-03-31T10:19:20.185Z,16.08
2023-03-31T10:22:00.414Z,16.12
2023-03-31T10:24:41.462Z,16.09
2023-03-31T10:27:25.830Z,16.23
2023-03-31T10:30:01.398Z,16.24
2023-03-31T10:32:36.737Z,16.33
2023-03-31T10:35:16.511Z,16.34
2023-03-31T10:37:53.014Z,16.27
2023-03-31T10:40:28.817Z,16.32
2023-03-31T10:43:12.453Z,16.40
2023-03-31T10:45:50.253Z,16.49
2023-03-31T10:48:28.451Z,16.59
2023-03-31T10:51:07.145Z,16.82
2023-03-31T10:53:48.738Z,17.02
2023-03-31T10:56:36.918Z,17.07
2023-03-31T10:59:25.863Z,17.14
2023-03-31T11:02:21.925Z,17.43
2023-03-31T11:05:06.133Z,17.57
2023-03-31T11:07:55.245Z,17.50
2023-03-31T11:11:01.134Z,17.45
2023-03-31T11:13:43.133Z,17.52
2023-03-31T11:16:27.214Z,17.56
2023-03-31T11:19:10.882Z,17.64
2023-03-31T11:21:56.741Z,17.63
2023-03-31T11:25:04.252Z,17.45
2023-03-31T11:27:52.522Z,17.32
2023-03-31T11:30:30.642Z,17.14
2023-03-31T11:33:22.313Z,16.98
2023-03-31T11:36:09.076Z,16.79
2023-03-31T11:38:54.632Z,16.66
2023-03-31T11:41:36.388Z,16.53
2023-03-31T11:44:12.844Z,16.35
2023-03-31T11:46:50.349Z,16.34
2023-03-31T11:49:28.344Z,16.22
2023-03-31T11:52:05.646Z,16.07
2023-03-31T11:54:43.458Z,15.97
2023-03-31T11:57:20.162Z,15.90
2023-03-31T11:59:57.502Z,15.77
2023-03-31T12:02:41.277Z,15.65
2023-03-31T12:05:18.456Z,15.46
2023-03-31T12:07:55.737Z,15.32
2023-03-31T12:10:37.434Z,15.27
2023-03-31T12:13:29.710Z,15.22
2023-03-31T12:16:09.023Z,15.27
2023-03-31T12:18:47.572Z,15.19
2023-03-31T12:21:21.340Z,15.18
2023-03-31T12:23:54.255Z,15.16
2023-03-31T12:26:42.989Z,15.17
2023-03-31T12:29:28.193Z,15.22
2023-03-31T12:32:04.402Z,15.27
2023-03-31T12:34:44.942Z,15.41
2023-03-31T12:37:48.092Z,15.36
2023-03-31T12:40:35.311Z,15.43
2023-03-31T12:43:25.051Z,15.53
2023-03-31T12:46:07.187Z,15.61
2023-03-31T12:49:00.698Z,15.70
2023-03-31T12:52:04.288Z,15.74
2023-03-31T12:55:10.019Z,15.84
2023-03-31T12:57:42.870Z,15.83
2023-03-31T13:00:30.528Z,15.73
2023-03-31T13:03:37.023Z,15.75
2023-03-31T13:06:11.880Z,15.68
2023-03-31T13:09:01.248Z,15.67
2023-03-31T13:11:45.164Z,15.62
2023-03-31T13:14:24.021Z,15.62
2023-03-31T13:17:14.118Z,15.70
2023-03-31T13:19:47.680Z,15.58
2023-03-31T13:22:38.545Z,15.57
2023-03-31T13:25:44.415Z,15.65
2023-03-31T13:28:26.313Z,15.73
2023-03-31T13:31:02.811Z,15.72
2023-03-31T13:33:42.125Z,15.82
2023-03-31T13:36:42.312Z,15.89
2023-03-31T13:39:43.202Z,15.86
2023-03-31T13:42:40.660Z,15.84
2023-03-31T13:45:24.550Z,15.80
2023-03-31T13:48:27.139Z,15.80
2023-03-31T13:51:18.930Z,15.86
2023-03-31T13:54:10.345Z,15.85
2023-03-31T13:56:57.400Z,15.91
2023-03-31T14:00:02.808Z,15.93
2023-03-31T14:02:59.259Z,15.90
2023-03-31T14:05:36.133Z,15.83
2023-03-31T14:08:15.100Z,15.71
2023-03-31T14:10:47.922Z,15.79
2023-03-31T14:13:21.968Z,15.77
2023-03-31T14:15:58.796Z,15.75
2023-03-31T14:18:35.227Z,15.64
2023-03-31T14:21:25.121Z,15.61
2023-03-31T14:24:09.728Z,15.61
2023-03-31T14:26:55.797Z,15.56
2023-03-31T14:29:35.786Z,15.36
2023-03-31T14:32:17.865Z,15.19
2023-03-31T14:35:01.691Z,15.05
2023-03-31T14:37:36.365Z,14.65
2023-03-31T14:40:15.066Z,14.45
2023-03-31T14:43:48.278Z,14.00
2023-03-31T14:46:34.687Z,13.64
2023-03-31T14:49:22.067Z,13.42
2023-03-31T14:52:00.568Z,13.28
2023-03-31T14:54:38.912Z,13.00
2023-03-31T14:57:13.507Z,12.90
2023-03-31T14:59:47.500Z,12.66
2023-03-31T15:02:26.352Z,12.52
2023-03-31T15:04:59.934Z,12.39
2023-03-31T15:07:33.757Z,12.22
2023-03-31T15:10:08.588Z,12.29
2023-03-31T15:12:42.843Z,12.29
2023-03-31T15:15:17.412Z,12.25
2023-03-31T15:17:51.514Z,12.25
2023-03-31T15:20:35.059Z,12.24
2023-03-31T15:23:21.722Z,12.20
2023-03-31T15:25:58.080Z,12.21
2023-03-31T15:28:35.660Z,12.28
2023-03-31T15:31:10.675Z,12.29
2023-03-31T15:33:44.116Z,12.39
2023-03-31T15:36:17.310Z,12.41
2023-03-31T15:38:57.236Z,12.50
2023-03-31T15:41:33.256Z,12.49
2023-03-31T15:44:29.354Z,12.48
2023-03-31T15:47:08.762Z,12.43
2023-03-31T15:49:48.904Z,12.47
2023-03-31T15:52:35.033Z,12.45
2023-03-31T15:55:29.454Z,12.45
2023-03-31T15:58:03.374Z,12.48
2023-03-31T16:00:53.031Z,12.46
2023-03-31T16:03:30.715Z,12.51
2023-03-31T16:06:07.994Z,12.52
2023-03-31T16:08:45.681Z,12.52
2023-03-31T16:11:25.268Z,12.56
2023-03-31T16:14:01.470Z,12.58
2023-03-31T16:16:35.188Z,12.56
2023-03-31T16:19:11.768Z,12.60
2023-03-31T16:21:50.660Z,12.62
2023-03-31T16:24:30.234Z,12.59
2023-03-31T16:27:08.313Z,12.62
2023-03-31T16:29:41.614Z,12.60
2023-03-31T16:32:16.748Z,12.61
2023-03-31T16:35:00.764Z,12.58
2023-03-31T16:37:33.614Z,12.59
2023-03-31T16:40:10.235Z,12.55
2023-03-31T16:42:43.655Z,12.56
2023-03-31T16:45:16.964Z,12.57
2023-03-31T16:47:50.259Z,12.56
2023-03-31T16:50:23.472Z,12.51
2023-03-31T16:52:57.990Z,12.47
2023-03-31T16:55:31.894Z,12.36
2023-03-31T16:58:05.272Z,12.39
2023-03-31T17:00:40.578Z,12.37
2023-03-31T17:03:14.309Z,12.37
2023-03-31T17:05:50.673Z,12.35
2023-03-31T17:08:25.071Z,12.34
2023-03-31T17:11:02.430Z,12.31
2023-03-31T17:13:36.030Z,12.31
2023-03-31T17:16:19.054Z,12.26
2023-03-31T17:18:57.235Z,12.18
2023-03-31T17:21:29.848Z,12.07
2023-03-31T17:24:03.284Z,11.86
2023-03-31T17:26:36.405Z,11.81
2023-03-31T17:29:09.700Z,11.79
2023-03-31T17:31:42.840Z,11.75
2023-03-31T17:34:17.468Z,11.69
2023-03-31T17:36:51.031Z,11.66
2023-03-31T17:39:24.103Z,11.63
2023-03-31T17:41:57.664Z,11.64
2023-03-31T17:44:31.887Z,11.50
2023-03-31T17:47:06.066Z,11.37
2023-03-31T17:49:38.887Z,11.27
2023-03-31T17:52:14.277Z,11.22
2023-03-31T17:54:49.445Z,11.25
2023-03-31T17:57:23.386Z,11.29
2023-03-31T17:59:57.012Z,11.28
2023-03-31T18:02:30.237Z,11.15
2023-03-31T18:05:03.311Z,11.10
2023-03-31T18:07:36.469Z,11.00
2023-03-31T18:10:12.499Z,10.88
2023-03-31T18:12:47.120Z,10.74
2023-03-31T18:15:20.546Z,10.74
2023-03-31T18:17:51.503Z,10.68
2023-03-31T18:20:24.785Z,10.75
2023-03-31T18:22:57.218Z,10.83
2023-03-31T18:25:32.023Z,10.87
2023-03-31T18:28:05.284Z,10.95
2023-03-31T18:30:39.938Z,10.86
2023-03-31T18:33:14.812Z,10.87
2023-03-31T18:36:04.454Z,10.88
2023-03-31T18:42:02.213Z,10.77
2023-03-31T18:44:40.201Z,10.69
2023-03-31T18:47:14.183Z,10.70
2023-03-31T18:49:55.151Z,10.69
2023-03-31T18:52:28.497Z,10.67
2023-03-31T18:55:01.028Z,10.59
2023-03-31T18:57:34.153Z,10.51
2023-03-31T19:00:08.784Z,10.36
2023-03-31T19:02:42.094Z,10.27
2023-03-31T19:05:13.327Z,10.28
2023-03-31T19:07:46.353Z,10.22
2023-03-31T19:10:19.040Z,10.30
2023-03-31T19:12:52.917Z,10.36
2023-03-31T19:15:26.154Z,10.33
2023-03-31T19:18:00.305Z,10.49
2023-03-31T19:20:33.633Z,10.56
2023-03-31T19:23:07.174Z,10.62
2023-03-31T19:25:40.591Z,10.69
2023-03-31T19:28:16.818Z,10.74
2023-03-31T19:30:52.220Z,10.79
2023-03-31T19:33:27.123Z,10.81
2023-03-31T19:35:59.808Z,10.82
2023-03-31T19:38:36.952Z,10.86
2023-03-31T19:41:11.450Z,10.88
2023-03-31T19:43:48.327Z,10.89
2023-03-31T19:46:21.956Z,10.90
2023-03-31T19:48:53.114Z,10.82
2023-03-31T19:51:26.139Z,10.76
2023-03-31T19:53:59.258Z,10.75
2023-03-31T19:56:32.884Z,10.83
2023-03-31T19:59:03.786Z,10.76
2023-03-31T20:01:38.410Z,10.57
2023-03-31T20:04:12.711Z,10.59
2023-03-31T20:06:46.584Z,10.61
2023-03-31T20:09:21.785Z,10.60
2023-03-31T20:11:55.060Z,10.52
2023-03-31T20:14:28.543Z,10.37
2023-03-31T20:17:01.665Z,10.38
2023-03-31T20:19:34.860Z,10.35
2023-03-31T20:22:08.314Z,10.39
2023-03-31T20:24:40.935Z,10.40
2023-03-31T20:27:13.871Z,10.39
2023-03-31T20:29:46.740Z,10.37
2023-03-31T20:32:20.495Z,10.34
2023-03-31T20:34:53.173Z,10.33
2023-03-31T20:37:26.097Z,10.32
2023-03-31T20:39:59.286Z,10.30
2023-03-31T20:42:32.397Z,10.28
2023-03-31T20:45:05.290Z,10.17
2023-03-31T20:47:38.366Z,9.88
2023-03-31T20:50:12.085Z,9.70
2023-03-31T20:52:47.918Z,9.71
2023-03-31T20:55:20.821Z,9.78
2023-03-31T20:57:54.403Z,9.77
2023-03-31T21:00:27.324Z,9.80
2023-03-31T21:03:00.760Z,9.77
2023-03-31T21:05:31.693Z,9.82
2023-03-31T21:08:06.485Z,9.68
2023-03-31T21:10:44.939Z,9.59
2023-03-31T21:13:18.792Z,9.59
2023-03-31T21:15:56.087Z,9.52
2023-03-31T21:18:30.232Z,9.21
2023-03-31T21:21:05.415Z,9.18
2023-03-31T21:23:39.354Z,9.16
2023-03-31T21:26:15.126Z,9.18
2023-03-31T21:28:51.573Z,9.23
2023-03-31T21:31:27.590Z,9.20
2023-03-31T21:34:01.998Z,9.22
2023-03-31T21:36:34.800Z,9.19
2023-03-31T21:39:10.123Z,9.24
2023-03-31T21:41:42.860Z,9.17
2023-03-31T21:44:15.465Z,9.20
2023-03-31T21:46:48.366Z,9.13
2023-03-31T21:49:21.459Z,9.08
2023-03-31T21:51:55.669Z,9.03
2023-03-31T21:54:30.378Z,9.03
2023-03-31T21:57:03.249Z,8.90
2023-03-31T21:59:36.441Z,8.84
2023-03-31T22:02:09.467Z,8.72
2023-03-31T22:04:42.501Z,8.71
2023-03-31T22:07:15.147Z,8.62
2023-03-31T22:09:48.986Z,8.61
2023-03-31T22:12:21.560Z,8.54
2023-03-31T22:14:55.197Z,8.51
2023-03-31T22:17:28.346Z,8.48
2023-03-31T22:20:01.109Z,8.44
2023-03-31T22:22:34.089Z,8.39
2023-03-31T22:25:07.997Z,8.34
2023-03-31T22:27:41.236Z,8.31
2023-03-31T22:30:13.849Z,8.37
2023-03-31T22:32:46.851Z,8.26
2023-03-31T22:35:20.574Z,8.33
2023-03-31T22:37:53.420Z,8.39
2023-03-31T22:40:26.191Z,8.37
2023-03-31T22:43:01.452Z,8.35
2023-03-31T22:45:34.419Z,8.35
2023-03-31T22:48:08.091Z,8.39
2023-03-31T22:50:43.217Z,8.39
2023-03-31T22:53:17.144Z,8.39
2023-03-31T22:55:54.408Z,8.36
2023-03-31T22:58:28.815Z,8.41
2023-03-31T23:01:02.934Z,8.38
2023-03-31T23:03:35.776Z,8.32
2023-03-31T23:06:09.539Z,8.33
2023-03-31T23:08:45.116Z,8.40
2023-03-31T23:11:19.637Z,8.45
2023-03-31T23:13:52.493Z,8.45
2023-03-31T23:16:27.557Z,8.49
2023-03-31T23:19:01.673Z,8.50
2023-03-31T23:21:35.131Z,8.47
2023-03-31T23:24:08.573Z,8.56
2023-03-31T23:26:41.792Z,8.57
2023-03-31T23:29:15.694Z,8.60
2023-03-31T23:31:48.771Z,8.61
2023-03-31T23:34:21.793Z,8.65
2023-03-31T23:36:54.375Z,8.68
2023-03-31T23:39:27.110Z,8.69
2023-03-31T23:41:59.815Z,8.71
2023-03-31T23:44:33.224Z,8.69
2023-03-31T23:47:06.271Z,8.70
2023-03-31T23:49:39.390Z,8.72
2023-03-31T23:52:11.868Z,8.68
2023-03-31T23:54:45.470Z,8.69
2023-03-31T23:57:18.400Z,8.73
2023-03-31T23:59:52.942Z,8.71
